Armstrong, Illinois
Current Conditions -  °F | °C
As of 12:15 PM on Monday 26 Jan 2015 (Local Time) from KTIP Reporting Station
Overcast Overcast  
Wind Chill: 23°   Ceiling: 1400
Heat Index: 29°   Visibility: 10mi
Dew Point: 24°   Wind: 6mph
Humidity: 80%   Direction: 260°W
Pressure: 29.93"   Gusts: NA
Location:  40.31°N, 87.88°W
Report Text: KTIP 261815Z AUTO 26005KT 10SM BKN014 OVC070 M02/M05 A2993 RMK AO2 T10161046
Loading
Personal Weather Stations






























Interactive Weather Map New forecast layout! Learn more

10-Day Weather Forecast

Advertisements
Track Severe Weather on mobile